Time;durP1;ratioP1;P1;durP2;ratioP2;P2;SDS_P1;SDS_P2;PMS_P1;PMS_P2;Temp;Humidity;BMP_temperature;BMP_pressure;BME280_temperature;BME280_humidity;BME280_pressure;Samples;Min_cycle;Max_cycle;Signal;HPM_P1;HPM_P2
2022/04/11 00:00:57;;;;;;;2.13;0.60;;;9.00;99.90;;;;;;4844358;29;20674;-59
2022/04/11 00:03:28;;;;;;;0.85;0.77;;;9.00;99.90;;;;;;4848698;29;20248;-58
2022/04/11 00:05:59;;;;;;;1.60;1.05;;;8.90;99.90;;;;;;4840680;29;20202;-56
2022/04/11 00:08:30;;;;;;;0.75;0.70;;;8.80;99.90;;;;;;4843197;29;20241;-57
2022/04/11 00:11:00;;;;;;;3.17;1.08;;;8.70;99.90;;;;;;4847982;29;20217;-57
2022/04/11 00:13:31;;;;;;;2.13;1.00;;;8.60;99.90;;;;;;4848323;29;20215;-56
2022/04/11 00:16:05;;;;;;;1.38;1.15;;;8.60;99.90;;;;;;4844385;29;20535;-57
2022/04/11 00:18:36;;;;;;;1.30;0.70;;;8.40;99.90;;;;;;4846433;29;20315;-57
2022/04/11 00:21:07;;;;;;;1.95;1.35;;;8.50;99.90;;;;;;4849413;29;20200;-58
2022/04/11 00:23:37;;;;;;;1.17;1.00;;;8.50;99.90;;;;;;4837461;29;20213;-57
2022/04/11 00:26:08;;;;;;;3.60;1.35;;;8.60;99.90;;;;;;4847395;29;20323;-61
2022/04/11 00:28:39;;;;;;;3.47;1.33;;;8.60;99.90;;;;;;4843479;29;20237;-59
2022/04/11 00:31:11;;;;;;;1.95;1.42;;;8.40;99.90;;;;;;4842866;29;20218;-55
2022/04/11 00:33:42;;;;;;;1.25;1.15;;;8.40;99.90;;;;;;4847455;29;20209;-55
2022/04/11 00:36:13;;;;;;;1.98;1.50;;;8.30;99.90;;;;;;4840650;29;20266;-57
2022/04/11 00:38:44;;;;;;;1.55;1.45;;;8.20;99.90;;;;;;4841002;29;20205;-56
2022/04/11 00:41:14;;;;;;;2.88;1.70;;;8.10;99.90;;;;;;4842481;29;20244;-56
2022/04/11 00:43:45;;;;;;;1.92;1.20;;;8.00;99.90;;;;;;4843783;29;20205;-57
2022/04/11 00:46:18;;;;;;;1.17;1.08;;;7.90;99.90;;;;;;4847429;29;20311;-55
2022/04/11 00:48:49;;;;;;;1.23;1.05;;;7.80;99.90;;;;;;4843609;29;20245;-57
2022/04/11 00:51:23;;;;;;;1.20;1.10;;;7.80;99.90;;;;;;4848773;29;20205;-53
2022/04/11 00:53:58;;;;;;;1.08;1.08;;;7.70;99.90;;;;;;4840922;29;20214;-57
2022/04/11 00:56:30;;;;;;;1.20;1.10;;;7.60;99.90;;;;;;4839891;29;20221;-59
2022/04/11 00:59:03;;;;;;;1.42;0.80;;;7.70;99.90;;;;;;4848092;29;20670;-59
2022/04/11 01:01:36;;;;;;;1.90;1.42;;;7.70;99.90;;;;;;4852952;29;20220;-65
2022/04/11 01:04:22;;;;;;;1.80;1.50;;;7.80;99.90;;;;;;4844295;29;20227;-65
2022/04/11 01:06:54;;;;;;;2.10;1.90;;;7.60;99.90;;;;;;4841640;29;20205;-66
2022/04/11 01:09:26;;;;;;;2.38;1.38;;;7.60;99.90;;;;;;4849739;29;20222;-65
2022/04/11 01:11:57;;;;;;;2.78;2.15;;;7.70;99.90;;;;;;4846835;29;20226;-64
2022/04/11 01:14:27;;;;;;;2.58;1.90;;;7.70;99.90;;;;;;4842327;29;20716;-64
2022/04/11 01:17:00;;;;;;;2.13;1.80;;;7.60;99.90;;;;;;4848569;29;20221;-65
2022/04/11 01:19:31;;;;;;;2.15;2.03;;;7.60;99.90;;;;;;4851015;29;20205;-61
2022/04/11 01:22:03;;;;;;;6.88;2.15;;;7.50;99.90;;;;;;4853776;29;20208;-65
2022/04/11 01:24:36;;;;;;;1.77;1.52;;;7.50;99.90;;;;;;4844259;29;20231;-63
2022/04/11 01:27:07;;;;;;;2.33;2.13;;;7.40;99.90;;;;;;4844160;29;20217;-64
2022/04/11 01:29:38;;;;;;;2.08;1.95;;;7.20;99.90;;;;;;4848579;29;20236;-61
2022/04/11 01:32:09;;;;;;;2.00;1.70;;;7.10;99.90;;;;;;4842642;29;20233;-63
2022/04/11 01:34:40;;;;;;;3.20;2.50;;;7.10;99.90;;;;;;4841481;29;20213;-63
2022/04/11 01:37:13;;;;;;;6.60;3.50;;;7.10;99.90;;;;;;4835342;29;20257;-63
2022/04/11 01:39:43;;;;;;;3.60;3.30;;;7.00;99.90;;;;;;4841109;29;20205;-59
2022/04/11 01:42:14;;;;;;;3.58;3.10;;;7.10;99.90;;;;;;4846265;29;20552;-57
2022/04/11 01:44:45;;;;;;;2.17;1.77;;;7.10;99.90;;;;;;4845961;29;20308;-58
2022/04/11 01:47:16;;;;;;;3.13;2.60;;;7.00;99.90;;;;;;4847865;29;20213;-63
2022/04/11 01:49:47;;;;;;;1.90;1.80;;;6.90;99.90;;;;;;4849126;29;20229;-63
2022/04/11 01:52:19;;;;;;;2.70;2.30;;;6.90;99.90;;;;;;4845724;29;20261;-65
2022/04/11 01:54:50;;;;;;;265.58;43.22;;;6.90;99.90;;;;;;4847839;29;20214;-63
2022/04/11 01:57:41;;;;;;;671.03;116.75;;;6.90;99.90;;;;;;4844564;29;20289;-56
2022/04/11 02:00:15;;;;;;;2.67;2.47;;;6.80;99.90;;;;;;4848551;29;20212;-58
2022/04/11 02:02:45;;;;;;;1.73;1.63;;;6.80;99.90;;;;;;4851289;29;20222;-55
2022/04/11 02:05:16;;;;;;;1.88;1.77;;;6.70;99.90;;;;;;4849432;29;20205;-57
2022/04/11 02:07:49;;;;;;;2.35;1.90;;;6.60;99.90;;;;;;4851027;29;20241;-55
2022/04/11 02:10:20;;;;;;;2.65;2.45;;;6.50;99.90;;;;;;4849095;29;20217;-57
2022/04/11 02:12:51;;;;;;;2.80;2.15;;;6.50;99.90;;;;;;4841314;29;20229;-58
2022/04/11 02:15:23;;;;;;;3.15;2.30;;;6.60;99.90;;;;;;4842987;29;20257;-58
2022/04/11 02:17:53;;;;;;;2.67;2.47;;;6.60;99.90;;;;;;4843411;29;20210;-56
2022/04/11 02:20:25;;;;;;;2.42;2.33;;;6.50;99.90;;;;;;4840920;29;20276;-56
2022/04/11 02:22:59;;;;;;;3.05;2.72;;;6.30;99.90;;;;;;4840844;29;20209;-57
2022/04/11 02:25:32;;;;;;;2.85;2.65;;;6.30;99.90;;;;;;4847432;29;20201;-57
2022/04/11 02:28:03;;;;;;;146.95;29.40;;;6.30;99.90;;;;;;4840921;29;20205;-56
2022/04/11 02:30:34;;;;;;;970.95;159.45;;;6.20;99.90;;;;;;4844467;29;20250;-55
2022/04/11 02:33:06;;;;;;;1999.90;382.23;;;6.30;99.90;;;;;;4844587;29;20213;-56
2022/04/11 02:35:37;;;;;;;3.97;3.67;;;6.40;99.90;;;;;;4833593;29;20237;-54
2022/04/11 02:38:09;;;;;;;6.00;3.80;;;6.20;99.90;;;;;;4833823;29;20286;-60
2022/04/11 02:40:40;;;;;;;8.55;4.25;;;6.10;99.90;;;;;;4849682;29;20214;-55
2022/04/11 02:43:11;;;;;;;3.72;3.42;;;6.20;99.90;;;;;;4843594;29;20252;-57
2022/04/11 02:45:42;;;;;;;3.70;3.40;;;6.20;99.90;;;;;;4843390;29;20215;-57
2022/04/11 02:48:13;;;;;;;3.53;3.22;;;6.00;99.90;;;;;;4851047;29;20213;-54
2022/04/11 02:50:43;;;;;;;3.78;3.40;;;6.00;99.90;;;;;;4844757;29;20373;-57
2022/04/11 02:53:16;;;;;;;3.20;3.00;;;5.70;99.90;;;;;;4837451;29;20202;-59
2022/04/11 02:55:47;;;;;;;4.53;2.35;;;5.60;99.90;;;;;;4851176;29;20209;-58
2022/04/11 02:58:17;;;;;;;4.07;3.78;;;5.70;99.90;;;;;;4838539;29;20303;-58
2022/04/11 03:00:48;;;;;;;1214.50;200.02;;;5.60;99.90;;;;;;4847328;29;20313;-58
2022/04/11 03:03:21;;;;;;;108.72;16.95;;;5.70;99.90;;;;;;4845165;29;20222;-55
2022/04/11 03:05:51;;;;;;;4.07;3.13;;;5.60;99.90;;;;;;4844669;29;20550;-57
2022/04/11 03:08:24;;;;;;;4.00;3.15;;;5.50;99.90;;;;;;4840613;29;20244;-57
2022/04/11 03:10:54;;;;;;;3.42;3.22;;;5.60;99.90;;;;;;4844305;29;20248;-57
2022/04/11 03:13:26;;;;;;;3.63;3.33;;;5.60;99.90;;;;;;4842767;29;20206;-56
2022/04/11 03:15:57;;;;;;;3.58;3.38;;;5.60;99.90;;;;;;4838403;29;20213;-57
2022/04/11 03:18:28;;;;;;;3.63;3.33;;;5.60;99.90;;;;;;4846890;29;20213;-53
2022/04/11 03:20:58;;;;;;;4.50;3.60;;;5.50;99.90;;;;;;4847975;29;20225;-56
2022/04/11 03:23:31;;;;;;;3.60;3.30;;;5.50;99.90;;;;;;4839268;29;20731;-56
2022/04/11 03:26:02;;;;;;;3.55;3.30;;;5.50;99.90;;;;;;4846669;29;20658;-58
2022/04/11 03:28:33;;;;;;;3.67;3.38;;;5.40;99.90;;;;;;4845675;29;20210;-59
2022/04/11 03:31:03;;;;;;;4.28;3.78;;;5.40;99.90;;;;;;4841456;29;20252;-61
2022/04/11 03:33:34;;;;;;;4.13;3.72;;;5.20;99.90;;;;;;4840756;29;20277;-61
2022/04/11 03:36:06;;;;;;;92.13;20.42;;;5.30;99.90;;;;;;4850480;29;20320;-61
2022/04/11 03:38:39;;;;;;;3.92;3.60;;;5.30;99.90;;;;;;4842855;29;20197;-63
2022/04/11 03:41:10;;;;;;;3.90;3.60;;;5.20;99.90;;;;;;4840916;29;20657;-62
2022/04/11 03:43:41;;;;;;;3.15;2.95;;;5.10;99.90;;;;;;4834769;29;20229;-62
2022/04/11 03:46:11;;;;;;;4.32;3.20;;;5.00;99.90;;;;;;4843122;29;20209;-61
2022/04/11 03:48:42;;;;;;;2.65;2.45;;;5.10;99.90;;;;;;4850455;29;20223;-60
2022/04/11 03:51:13;;;;;;;3.15;2.95;;;5.00;99.90;;;;;;4835768;29;20225;-60
2022/04/11 03:53:46;;;;;;;3.00;2.80;;;5.10;99.90;;;;;;4847099;29;20209;-60
2022/04/11 03:56:17;;;;;;;2.50;2.30;;;5.00;99.90;;;;;;4842005;29;20216;-64
2022/04/11 03:58:48;;;;;;;3.00;2.78;;;4.90;99.90;;;;;;4845353;29;20853;-65
2022/04/11 04:01:18;;;;;;;2.58;2.40;;;4.80;99.90;;;;;;4842221;29;20217;-62
2022/04/11 04:03:50;;;;;;;4.05;3.00;;;4.90;99.90;;;;;;4850438;29;20722;-60
2022/04/11 04:06:21;;;;;;;2.72;2.42;;;4.90;99.90;;;;;;4850352;29;20233;-61
2022/04/11 04:08:53;;;;;;;3.03;2.83;;;4.80;99.90;;;;;;4836673;29;20340;-62
2022/04/11 04:11:24;;;;;;;3.55;2.80;;;4.90;99.90;;;;;;4842379;29;20237;-62
2022/04/11 04:13:54;;;;;;;3.17;2.88;;;4.80;99.90;;;;;;4845264;29;20226;-68
2022/04/11 04:16:25;;;;;;;3.42;3.13;;;4.80;99.90;;;;;;4849310;29;20241;-65
2022/04/11 04:18:56;;;;;;;2.83;2.63;;;4.80;99.90;;;;;;4843598;29;20210;-65
2022/04/11 04:21:27;;;;;;;2.70;2.60;;;4.80;99.90;;;;;;4848784;29;20194;-65
2022/04/11 04:23:59;;;;;;;2.45;2.30;;;4.70;99.90;;;;;;4845288;29;20210;-57
2022/04/11 04:26:30;;;;;;;2.80;2.60;;;4.70;99.90;;;;;;4848866;29;20219;-56
2022/04/11 04:29:01;;;;;;;2.95;2.75;;;4.60;99.90;;;;;;4849158;29;20210;-55
2022/04/11 04:31:32;;;;;;;3.20;2.80;;;4.50;99.90;;;;;;4841586;29;20233;-55
2022/04/11 04:34:03;;;;;;;2.75;2.55;;;4.50;99.90;;;;;;4843411;29;20207;-57
2022/04/11 04:36:33;;;;;;;2.53;2.33;;;4.40;99.90;;;;;;4849096;29;20209;-55
2022/04/11 04:39:06;;;;;;;2.65;2.45;;;4.30;99.90;;;;;;4841179;29;20214;-56
2022/04/11 04:41:37;;;;;;;2.40;2.30;;;4.30;99.90;;;;;;4844174;29;20279;-53
2022/04/11 04:44:08;;;;;;;2.30;2.20;;;4.30;99.90;;;;;;4853061;29;20276;-58
2022/04/11 04:46:43;;;;;;;2.72;2.60;;;4.10;99.90;;;;;;4838326;29;20218;-56
2022/04/11 04:49:14;;;;;;;3.85;2.40;;;4.00;99.90;;;;;;4851414;29;20228;-53
2022/04/11 04:51:48;;;;;;;3.00;2.80;;;4.00;99.90;;;;;;4842812;29;20218;-56
2022/04/11 04:54:20;;;;;;;3.13;2.85;;;4.00;99.90;;;;;;4840873;29;20216;-56
2022/04/11 04:56:53;;;;;;;2.92;2.65;;;4.10;99.90;;;;;;4835267;29;20300;-55
2022/04/11 04:59:24;;;;;;;3.17;2.90;;;4.00;99.90;;;;;;4849010;29;20220;-55
2022/04/11 05:01:58;;;;;;;1.88;1.77;;;4.00;99.90;;;;;;4845144;29;20213;-56
2022/04/11 05:04:29;;;;;;;2.80;2.60;;;4.00;99.90;;;;;;4845002;29;20201;-56
2022/04/11 05:07:02;;;;;;;2.55;2.00;;;4.00;99.90;;;;;;4853014;29;20247;-54
2022/04/11 05:09:34;;;;;;;3.17;2.80;;;4.00;99.90;;;;;;4846319;29;20213;-53
2022/04/11 05:12:06;;;;;;;2.53;2.33;;;4.00;99.90;;;;;;4851154;29;20229;-56
2022/04/11 05:14:37;;;;;;;3.40;2.63;;;4.00;99.90;;;;;;4845726;29;20202;-57
2022/04/11 05:17:08;;;;;;;2.08;1.88;;;4.00;99.90;;;;;;4839908;29;20215;-55
2022/04/11 05:19:39;;;;;;;2.90;2.70;;;4.00;99.90;;;;;;4839590;29;20203;-56
2022/04/11 05:22:10;;;;;;;2.22;2.03;;;4.00;99.90;;;;;;4851274;29;20202;-56
2022/04/11 05:24:42;;;;;;;2.03;1.80;;;4.00;99.90;;;;;;4853316;29;20274;-57
2022/04/11 05:27:13;;;;;;;2.50;2.30;;;4.00;99.90;;;;;;4849673;29;20232;-56
2022/04/11 05:29:44;;;;;;;2.08;1.52;;;4.10;99.90;;;;;;4845639;29;20209;-57
2022/04/11 05:32:14;;;;;;;1.95;1.85;;;4.00;99.90;;;;;;4852475;29;20252;-54
2022/04/11 05:34:45;;;;;;;2.10;1.75;;;4.00;99.90;;;;;;4852731;29;20285;-57
2022/04/11 05:37:16;;;;;;;1.88;1.77;;;4.00;99.90;;;;;;4841285;29;20206;-57
2022/04/11 05:39:48;;;;;;;1.60;1.50;;;4.10;99.90;;;;;;4847603;29;20273;-57
2022/04/11 05:42:19;;;;;;;1.63;1.52;;;4.10;99.90;;;;;;4836754;29;20217;-57
2022/04/11 05:44:50;;;;;;;1.60;1.50;;;4.20;99.90;;;;;;4848955;29;20209;-57
2022/04/11 05:47:21;;;;;;;1.75;1.65;;;4.30;99.90;;;;;;4846735;29;20205;-55
2022/04/11 05:49:51;;;;;;;1.75;1.65;;;4.30;99.90;;;;;;4852861;29;20205;-58
2022/04/11 05:52:22;;;;;;;1.70;1.60;;;4.30;99.90;;;;;;4838290;29;20233;-54
2022/04/11 05:54:54;;;;;;;1.45;1.35;;;4.30;99.90;;;;;;4834649;29;20214;-56
2022/04/11 05:57:25;;;;;;;2.60;2.10;;;4.30;99.90;;;;;;4850537;29;20239;-55
2022/04/11 05:59:56;;;;;;;1.70;1.60;;;4.30;99.90;;;;;;4848084;29;20206;-57
2022/04/11 06:02:27;;;;;;;1.83;1.65;;;4.30;99.90;;;;;;4843567;29;20205;-55
2022/04/11 06:04:58;;;;;;;1.73;1.63;;;4.40;99.90;;;;;;4841625;29;20207;-56
2022/04/11 06:07:32;;;;;;;1.40;1.10;;;4.40;99.90;;;;;;4841194;29;20252;-55
2022/04/11 06:10:04;;;;;;;1.60;1.50;;;4.30;99.90;;;;;;4850838;29;20217;-53
2022/04/11 06:12:35;;;;;;;1.88;1.50;;;4.30;99.90;;;;;;4849382;29;20244;-56
2022/04/11 06:15:07;;;;;;;2.05;1.85;;;4.30;99.90;;;;;;4837366;29;20206;-57
2022/04/11 06:17:38;;;;;;;2.13;1.95;;;4.30;99.90;;;;;;4845880;29;20223;-56
2022/04/11 06:20:10;;;;;;;1.98;1.77;;;4.30;99.90;;;;;;4841507;29;20261;-56
2022/04/11 06:22:41;;;;;;;1.80;1.70;;;4.30;99.90;;;;;;4848084;29;20217;-53
2022/04/11 06:25:14;;;;;;;1.50;1.40;;;4.40;99.90;;;;;;4834727;29;20206;-52
2022/04/11 06:27:45;;;;;;;1.20;1.20;;;4.40;99.90;;;;;;4847517;29;20535;-54
2022/04/11 06:30:15;;;;;;;1.27;1.17;;;4.40;99.90;;;;;;4836036;29;20214;-51
2022/04/11 06:32:46;;;;;;;1.55;1.20;;;4.40;99.90;;;;;;4841693;29;20241;-58
2022/04/11 06:35:17;;;;;;;1.27;1.27;;;4.50;99.90;;;;;;4845424;29;20205;-55
2022/04/11 06:37:49;;;;;;;1.52;1.40;;;4.40;99.90;;;;;;4847499;29;20235;-54
2022/04/11 06:40:21;;;;;;;1.25;1.25;;;4.50;99.90;;;;;;4851110;29;20221;-54
2022/04/11 06:42:52;;;;;;;1.15;1.10;;;4.50;99.90;;;;;;4849964;29;20243;-54
2022/04/11 06:45:23;;;;;;;1.80;1.30;;;4.50;99.90;;;;;;4837054;29;20213;-55
2022/04/11 06:47:53;;;;;;;1.30;1.20;;;4.50;99.90;;;;;;4846787;29;20232;-56
2022/04/11 06:50:24;;;;;;;0.90;0.90;;;4.50;99.90;;;;;;4842381;29;20210;-53
2022/04/11 06:52:55;;;;;;;1.30;1.10;;;4.50;99.90;;;;;;4847784;29;20241;-55
2022/04/11 06:55:28;;;;;;;1.35;1.10;;;4.40;99.90;;;;;;4849579;29;20220;-55
2022/04/11 06:57:59;;;;;;;1.25;0.80;;;4.40;99.90;;;;;;4842477;29;20210;-56
2022/04/11 07:00:31;;;;;;;1.20;1.10;;;4.40;99.90;;;;;;4845675;29;20213;-56
2022/04/11 07:03:01;;;;;;;0.60;0.60;;;4.40;99.90;;;;;;4838510;29;20614;-54
2022/04/11 07:05:32;;;;;;;0.63;0.63;;;4.40;99.90;;;;;;4848308;29;20193;-56
2022/04/11 07:08:03;;;;;;;0.60;0.60;;;4.40;99.90;;;;;;4842468;29;20245;-56
2022/04/11 07:10:37;;;;;;;0.60;0.60;;;4.40;99.90;;;;;;4849501;29;20678;-55
2022/04/11 07:13:08;;;;;;;0.50;0.50;;;4.30;99.90;;;;;;4845488;29;20237;-53
2022/04/11 07:15:39;;;;;;;0.50;0.50;;;4.30;99.90;;;;;;4833894;29;20210;-52
2022/04/11 07:18:09;;;;;;;0.52;0.50;;;4.20;99.90;;;;;;4841738;29;20216;-56
2022/04/11 07:20:40;;;;;;;0.77;0.50;;;4.30;99.90;;;;;;4835156;29;20214;-54
2022/04/11 07:23:11;;;;;;;0.40;0.40;;;4.20;99.90;;;;;;4834366;29;20222;-55
2022/04/11 07:25:43;;;;;;;0.60;0.60;;;4.20;99.90;;;;;;4845633;29;20230;-52
2022/04/11 07:28:14;;;;;;;2.15;0.60;;;4.10;99.90;;;;;;4832449;29;20214;-55
2022/04/11 07:30:45;;;;;;;0.50;0.50;;;4.10;99.90;;;;;;4845116;29;20214;-56
2022/04/11 07:33:16;;;;;;;1.27;0.52;;;4.10;99.90;;;;;;4849967;29;20315;-54
2022/04/11 07:35:47;;;;;;;0.65;0.50;;;4.10;99.90;;;;;;4845965;29;20217;-55
2022/04/11 07:38:18;;;;;;;0.77;0.55;;;4.10;99.90;;;;;;4841102;29;20232;-54
2022/04/11 07:40:52;;;;;;;0.50;0.50;;;4.10;99.90;;;;;;4838570;29;20659;-57
2022/04/11 07:43:23;;;;;;;0.40;0.40;;;4.10;99.90;;;;;;4847577;29;20217;-56
2022/04/11 07:45:54;;;;;;;0.60;0.60;;;4.10;99.90;;;;;;4846274;29;20288;-56
2022/04/11 07:48:25;;;;;;;0.90;0.70;;;4.20;99.90;;;;;;4841044;29;20206;-56
2022/04/11 07:50:56;;;;;;;0.32;0.32;;;4.20;99.90;;;;;;4850676;29;20215;-56
2022/04/11 07:53:28;;;;;;;0.40;0.40;;;4.20;99.90;;;;;;4833694;29;20225;-54
2022/04/11 07:56:01;;;;;;;0.50;0.50;;;4.30;99.90;;;;;;4842232;29;20528;-56
2022/04/11 07:58:31;;;;;;;0.43;0.43;;;4.20;99.90;;;;;;4849917;29;20685;-54
2022/04/11 08:01:02;;;;;;;0.50;0.50;;;4.20;99.90;;;;;;4844301;29;20189;-57
2022/04/11 08:03:33;;;;;;;0.95;0.65;;;4.20;99.90;;;;;;4851385;29;20270;-56
2022/04/11 08:06:04;;;;;;;0.50;0.50;;;4.20;99.90;;;;;;4845351;29;20224;-57
2022/04/11 08:08:35;;;;;;;0.40;0.40;;;4.10;99.90;;;;;;4853912;29;20239;-53
2022/04/11 08:11:07;;;;;;;0.60;0.60;;;4.10;99.90;;;;;;4846607;29;20368;-55
2022/04/11 08:13:50;;;;;;;0.73;0.60;;;4.10;99.90;;;;;;4847071;29;20211;-54
2022/04/11 08:16:21;;;;;;;0.45;0.45;;;4.10;99.90;;;;;;4852669;29;20224;-56
2022/04/11 08:18:52;;;;;;;0.98;0.80;;;4.10;99.90;;;;;;4854544;29;20244;-58
2022/04/11 08:21:22;;;;;;;0.70;0.70;;;4.10;99.90;;;;;;4842893;29;20225;-54
2022/04/11 08:23:53;;;;;;;0.70;0.65;;;4.10;99.90;;;;;;4837963;29;20210;-53
2022/04/11 08:26:26;;;;;;;1.35;0.60;;;4.10;99.90;;;;;;4850042;29;20210;-56
2022/04/11 08:28:56;;;;;;;0.80;0.80;;;4.20;99.90;;;;;;4839004;29;20261;-57
2022/04/11 08:31:27;;;;;;;0.82;0.82;;;4.20;99.90;;;;;;4845217;29;20210;-53
2022/04/11 08:33:58;;;;;;;3.10;2.78;;;4.20;99.90;;;;;;4846787;29;20611;-56
2022/04/11 08:36:29;;;;;;;6.90;5.38;;;4.20;99.90;;;;;;4848884;29;20218;-56
2022/04/11 08:39:00;;;;;;;5.80;5.10;;;4.10;99.90;;;;;;4852176;29;20655;-52
2022/04/11 08:41:36;;;;;;;6.22;5.53;;;4.00;99.90;;;;;;4847997;29;20624;-56
2022/04/11 08:44:08;;;;;;;6.43;5.45;;;3.80;99.90;;;;;;4843000;29;20206;-54
2022/04/11 08:46:39;;;;;;;7.53;6.63;;;3.70;99.90;;;;;;4835609;29;20260;-53
2022/04/11 08:49:09;;;;;;;5.32;4.40;;;3.60;99.90;;;;;;4850986;29;20258;-55
2022/04/11 08:51:40;;;;;;;4.85;4.35;;;3.50;99.90;;;;;;4853917;29;20211;-55
2022/04/11 08:54:11;;;;;;;3.72;3.40;;;3.30;99.90;;;;;;4840475;29;20228;-55
2022/04/11 08:56:43;;;;;;;3.50;3.20;;;3.20;99.90;;;;;;4847706;29;20217;-55
2022/04/11 08:59:14;;;;;;;3.10;2.90;;;3.00;99.90;;;;;;4846910;29;20214;-56
2022/04/11 09:01:45;;;;;;;2.50;2.30;;;2.90;99.90;;;;;;4837156;29;20218;-54
2022/04/11 09:04:16;;;;;;;3.17;2.20;;;2.90;99.90;;;;;;4835922;29;20229;-55
2022/04/11 09:06:56;;;;;;;2.10;2.00;;;2.70;99.90;;;;;;4841856;29;20206;-56
2022/04/11 09:09:39;;;;;;;2.15;2.05;;;2.50;99.90;;;;;;4844311;29;20667;-54
2022/04/11 09:12:14;;;;;;;1.90;1.80;;;2.60;99.90;;;;;;4836330;29;20245;-57
2022/04/11 09:14:52;;;;;;;2.00;1.90;;;2.50;99.90;;;;;;4835282;29;20225;-53
2022/04/11 09:17:25;;;;;;;1.90;1.80;;;2.40;99.90;;;;;;4835521;29;20209;-53
2022/04/11 09:20:10;;;;;;;1.55;1.45;;;2.30;99.90;;;;;;4853389;29;20212;-56
2022/04/11 09:22:44;;;;;;;1.48;1.38;;;2.30;99.90;;;;;;4846151;29;20202;-56
2022/04/11 09:25:17;;;;;;;1.25;1.15;;;2.20;99.90;;;;;;4845508;29;20214;-58
2022/04/11 09:28:05;;;;;;;1.48;1.38;;;2.20;99.90;;;;;;4850364;29;20201;-56
2022/04/11 09:30:36;;;;;;;1.15;1.05;;;2.20;99.90;;;;;;4840206;29;20222;-56
2022/04/11 09:33:09;;;;;;;1.50;1.40;;;2.10;99.90;;;;;;4849071;29;20332;-55
2022/04/11 09:35:41;;;;;;;2.20;2.00;;;2.10;99.90;;;;;;4841213;29;20209;-57
2022/04/11 09:38:13;;;;;;;1.95;1.85;;;2.00;99.90;;;;;;4851409;29;20546;-61
2022/04/11 09:40:45;;;;;;;3.83;2.45;;;1.80;99.90;;;;;;4835691;29;20338;-58
2022/04/11 09:43:19;;;;;;;2.80;2.47;;;1.80;99.90;;;;;;4843015;29;20237;-57
2022/04/11 09:45:51;;;;;;;1.90;1.80;;;1.80;99.90;;;;;;4835090;29;20226;-57
2022/04/11 09:48:24;;;;;;;2.00;1.85;;;1.80;99.90;;;;;;4852674;29;20221;-56
2022/04/11 09:50:56;;;;;;;1.63;1.52;;;1.80;99.90;;;;;;4835272;29;20233;-56
2022/04/11 09:53:31;;;;;;;1.63;1.52;;;1.90;99.90;;;;;;4846765;29;20214;-56
2022/04/11 09:56:04;;;;;;;1.30;1.20;;;1.80;99.90;;;;;;4835488;29;20201;-55
2022/04/11 09:58:38;;;;;;;1.10;1.10;;;1.80;99.90;;;;;;4851873;29;20217;-54
2022/04/11 10:01:09;;;;;;;2.60;0.90;;;1.80;99.90;;;;;;4848332;29;20217;-53
2022/04/11 10:03:42;;;;;;;1.70;1.30;;;1.80;99.90;;;;;;4846042;29;20221;-53
2022/04/11 10:06:15;;;;;;;0.80;0.75;;;1.80;99.90;;;;;;4845357;29;20218;-57
2022/04/11 10:08:46;;;;;;;1.10;1.10;;;1.80;99.90;;;;;;4850147;29;20237;-56
2022/04/11 10:11:20;;;;;;;1.98;1.40;;;1.80;99.90;;;;;;4836563;29;20220;-54
2022/04/11 10:13:53;;;;;;;1.50;1.20;;;1.80;99.90;;;;;;4839409;29;20241;-56
2022/04/11 10:16:24;;;;;;;2.47;2.25;;;1.80;99.90;;;;;;4844834;29;20214;-55
2022/04/11 10:19:03;;;;;;;2.40;2.20;;;1.80;99.90;;;;;;4851459;29;20281;-54
2022/04/11 10:21:35;;;;;;;2.45;2.25;;;1.70;99.90;;;;;;4835936;29;20210;-55
2022/04/11 10:24:10;;;;;;;2.75;2.30;;;1.70;99.90;;;;;;4834182;29;20262;-55
2022/04/11 10:26:47;;;;;;;3.42;2.70;;;1.70;99.90;;;;;;4836312;29;20220;-56
2022/04/11 10:29:36;;;;;;;2.83;2.63;;;1.70;99.90;;;;;;4835854;29;20237;-55
2022/04/11 10:32:09;;;;;;;2.33;2.13;;;1.70;99.90;;;;;;4835278;29;20242;-56
2022/04/11 10:34:48;;;;;;;1.90;1.70;;;1.60;99.90;;;;;;4834968;29;20230;-55
2022/04/11 10:37:20;;;;;;;1.60;1.50;;;1.70;99.90;;;;;;4850005;29;20217;-58
2022/04/11 10:39:51;;;;;;;1.00;1.00;;;1.70;99.90;;;;;;4852307;29;20560;-57
2022/04/11 10:42:24;;;;;;;1.15;1.05;;;1.60;99.90;;;;;;4850284;29;20201;-57
2022/04/11 10:44:59;;;;;;;0.90;0.90;;;1.70;99.90;;;;;;4846096;29;20205;-54
2022/04/11 10:47:36;;;;;;;0.68;0.68;;;1.70;99.90;;;;;;4840619;29;20217;-52
2022/04/11 10:50:24;;;;;;;0.82;0.82;;;1.70;99.90;;;;;;4845653;29;20209;-58
2022/04/11 10:53:08;;;;;;;0.82;0.82;;;1.70;99.90;;;;;;4846692;29;20256;-58
2022/04/11 10:56:02;;;;;;;1.00;1.00;;;1.70;99.90;;;;;;4845527;29;20234;-56
2022/04/11 10:58:44;;;;;;;0.80;0.80;;;1.60;99.90;;;;;;4833723;29;20278;-55
2022/04/11 11:01:37;;;;;;;0.40;0.40;;;1.70;99.90;;;;;;4848111;29;20462;-55
2022/04/11 11:04:18;;;;;;;1.10;0.70;;;1.70;99.90;;;;;;4833880;29;20320;-56
2022/04/11 11:07:09;;;;;;;0.60;0.60;;;1.70;99.90;;;;;;4842415;29;20220;-58
2022/04/11 11:09:42;;;;;;;0.60;0.60;;;1.70;99.90;;;;;;4834014;29;20221;-57
2022/04/11 11:12:23;;;;;;;0.75;0.75;;;1.70;99.90;;;;;;4844049;29;20224;-58
2022/04/11 11:14:54;;;;;;;0.70;0.70;;;1.70;99.90;;;;;;4851560;29;20237;-57
2022/04/11 11:18:06;;;;;;;0.63;0.63;;;1.70;99.90;;;;;;4848885;29;20221;-57
2022/04/11 11:20:53;;;;;;;0.90;0.90;;;1.70;99.90;;;;;;4795828;29;20545;-57
2022/04/11 11:23:31;;;;;;;0.80;0.80;;;1.70;99.90;;;;;;4800368;29;20322;-57
2022/04/11 11:26:10;;;;;;;0.80;0.80;;;1.70;99.90;;;;;;4809778;29;20210;-55
2022/04/11 11:28:44;;;;;;;1.25;0.80;;;1.70;99.90;;;;;;4794153;29;20207;-58
2022/04/11 11:31:15;;;;;;;0.88;0.80;;;1.70;99.90;;;;;;4794820;29;20301;-59
2022/04/11 11:33:52;;;;;;;0.95;0.95;;;1.70;99.90;;;;;;4796615;29;20228;-59
2022/04/11 11:36:32;;;;;;;0.90;0.90;;;1.70;99.90;;;;;;4811682;29;20269;-58
2022/04/11 11:39:13;;;;;;;1.10;1.10;;;1.70;99.90;;;;;;4799080;29;20214;-58
2022/04/11 11:41:45;;;;;;;1.40;1.30;;;1.70;99.90;;;;;;4796726;29;20254;-57
2022/04/11 11:44:16;;;;;;;0.80;0.80;;;1.70;99.90;;;;;;4794083;29;20210;-57
2022/04/11 11:46:55;;;;;;;1.02;1.02;;;1.70;99.90;;;;;;4795602;29;20219;-56
2022/04/11 11:49:28;;;;;;;0.50;0.50;;;1.70;99.90;;;;;;4795469;29;20225;-58
2022/04/11 11:52:00;;;;;;;0.60;0.40;;;1.70;99.90;;;;;;4794967;29;20222;-55
2022/04/11 11:54:38;;;;;;;0.30;0.30;;;1.70;99.90;;;;;;4795373;29;20227;-56
2022/04/11 11:57:17;;;;;;;0.50;0.35;;;1.70;99.90;;;;;;4835969;29;20550;-57
2022/04/11 11:59:53;;;;;;;0.30;0.20;;;1.70;99.90;;;;;;4847762;29;20209;-56
2022/04/11 12:05:21;;;;;;;0.30;0.30;;;1.70;99.90;;;;;;4846373;29;20213;-54
2022/04/11 12:08:14;;;;;;;0.55;0.55;;;1.70;99.90;;;;;;4847641;29;20324;-56
2022/04/11 12:10:46;;;;;;;0.30;0.20;;;1.70;99.90;;;;;;4846893;29;20229;-58
2022/04/11 12:13:23;;;;;;;0.30;0.30;;;1.70;99.90;;;;;;4842694;29;20221;-59
2022/04/11 12:15:54;;;;;;;0.30;0.22;;;1.80;99.90;;;;;;4841327;29;20230;-59
2022/04/11 12:18:25;;;;;;;0.30;0.25;;;1.80;99.90;;;;;;4836451;29;20201;-56
2022/04/11 12:20:56;;;;;;;0.80;0.80;;;1.70;99.90;;;;;;4850089;29;20301;-58
2022/04/11 12:23:28;;;;;;;0.65;0.63;;;1.70;99.90;;;;;;4850006;29;20228;-57
2022/04/11 12:26:00;;;;;;;1.05;1.05;;;1.60;99.90;;;;;;4849199;29;20216;-57
2022/04/11 12:28:36;;;;;;;1.20;1.20;;;1.60;99.90;;;;;;4834954;29;20198;-56
2022/04/11 12:31:13;;;;;;;1.02;1.00;;;1.70;99.90;;;;;;4843413;29;20215;-57
2022/04/11 12:33:46;;;;;;;0.88;0.88;;;1.80;99.90;;;;;;4837013;29;20282;-57
2022/04/11 12:36:19;;;;;;;0.65;0.65;;;1.80;99.90;;;;;;4840253;29;20213;-55
2022/04/11 12:38:53;;;;;;;0.80;0.45;;;1.70;99.90;;;;;;4850823;29;20210;-54
2022/04/11 12:41:31;;;;;;;0.73;0.40;;;1.70;99.90;;;;;;4841722;29;20214;-58
2022/04/11 12:44:10;;;;;;;1.08;0.40;;;1.70;99.90;;;;;;4842957;29;20205;-55
2022/04/11 12:46:43;;;;;;;0.82;0.30;;;1.70;99.90;;;;;;4842823;29;20212;-54
2022/04/11 12:49:17;;;;;;;0.40;0.40;;;1.60;99.90;;;;;;4844582;29;20206;-56
2022/04/11 12:52:00;;;;;;;0.28;0.25;;;1.70;99.90;;;;;;4835656;29;20221;-57
2022/04/11 12:54:39;;;;;;;0.80;0.35;;;1.60;99.90;;;;;;4836612;29;20242;-59
2022/04/11 12:57:12;;;;;;;1.17;0.47;;;1.60;99.90;;;;;;4850648;29;20221;-58
2022/04/11 12:59:48;;;;;;;0.30;0.30;;;1.60;99.90;;;;;;4848900;29;20574;-55
2022/04/11 13:02:20;;;;;;;0.30;0.30;;;1.60;99.90;;;;;;4845003;29;20589;-55
2022/04/11 13:04:53;;;;;;;0.40;0.40;;;1.60;99.90;;;;;;4853487;29;20302;-56
2022/04/11 13:07:49;;;;;;;0.50;0.43;;;1.60;99.90;;;;;;4840006;29;20238;-56
2022/04/11 13:10:21;;;;;;;328.15;56.28;;;1.60;99.90;;;;;;4849031;29;20213;-57
2022/04/11 13:12:53;;;;;;;57.90;11.88;;;1.70;99.90;;;;;;4848804;29;20218;-56
2022/04/11 13:15:24;;;;;;;10.77;1.85;;;1.70;99.90;;;;;;4841062;29;20242;-57
2022/04/11 13:20:42;;;;;;;0.30;0.30;;;1.70;99.90;;;;;;4838944;29;20224;-57
2022/04/11 13:23:13;;;;;;;0.20;0.20;;;1.70;99.90;;;;;;4852228;29;20206;-56
2022/04/11 13:25:45;;;;;;;0.40;0.30;;;1.60;99.90;;;;;;4842892;29;20209;-57
2022/04/11 13:28:24;;;;;;;0.50;0.30;;;1.70;99.90;;;;;;4852362;29;20210;-57
2022/04/11 13:30:55;;;;;;;0.30;0.20;;;1.80;99.90;;;;;;4843925;29;20209;-57